createdAt,value
2022-12-16T00:01:18.740Z,32.59
2022-12-16T00:03:52.959Z,32.61
2022-12-16T00:06:22.594Z,32.80
2022-12-16T00:08:49.248Z,32.69
2022-12-16T00:11:15.905Z,32.89
2022-12-16T00:13:42.546Z,33.12
2022-12-16T00:16:16.291Z,32.90
2022-12-16T00:18:43.319Z,32.60
2022-12-16T00:21:14.161Z,32.93
2022-12-16T00:23:44.411Z,32.66
2022-12-16T00:26:12.060Z,32.69
2022-12-16T00:28:39.769Z,32.72
2022-12-16T00:31:15.778Z,32.93
2022-12-16T00:33:42.505Z,32.87
2022-12-16T00:36:09.365Z,32.59
2022-12-16T00:38:35.976Z,32.59
2022-12-16T00:41:10.329Z,33.05
2022-12-16T00:43:37.099Z,32.93
2022-12-16T00:46:03.886Z,32.67
2022-12-16T00:48:30.531Z,32.83
2022-12-16T00:50:57.176Z,33.13
2022-12-16T00:53:24.800Z,32.90
2022-12-16T00:55:52.089Z,33.11
2022-12-16T00:58:18.779Z,32.98
2022-12-16T01:00:45.482Z,33.34
2022-12-16T01:03:15.574Z,33.38
2022-12-16T01:05:46.214Z,33.41
2022-12-16T01:08:12.945Z,33.21
2022-12-16T01:10:39.618Z,33.32
2022-12-16T01:13:06.234Z,33.34
2022-12-16T01:15:33.156Z,33.38
2022-12-16T01:17:59.823Z,33.72
2022-12-16T01:20:26.486Z,33.40
2022-12-16T01:22:53.093Z,33.74
2022-12-16T01:25:21.580Z,33.85
2022-12-16T01:27:48.402Z,33.57
2022-12-16T01:30:15.132Z,33.90
2022-12-16T01:32:41.812Z,33.55
2022-12-16T01:35:29.391Z,33.95
2022-12-16T01:37:55.358Z,33.90
2022-12-16T01:40:23.163Z,33.67
2022-12-16T01:42:50.067Z,33.72
2022-12-16T01:45:23.597Z,33.79
2022-12-16T01:47:51.247Z,34.14
2022-12-16T01:50:19.387Z,34.10
2022-12-16T01:52:48.337Z,34.21
2022-12-16T01:55:47.168Z,34.03
2022-12-16T01:58:15.981Z,34.41
2022-12-16T02:00:42.728Z,34.61
2022-12-16T02:03:09.813Z,34.77
2022-12-16T02:05:38.727Z,34.87
2022-12-16T02:08:11.416Z,34.82
2022-12-16T02:10:44.136Z,35.10
2022-12-16T02:13:19.929Z,34.78
2022-12-16T02:15:52.440Z,35.11
2022-12-16T02:18:33.574Z,35.14
2022-12-16T02:21:17.067Z,35.11
2022-12-16T02:23:43.964Z,35.15
2022-12-16T02:26:16.628Z,35.41
2022-12-16T02:29:04.474Z,35.03
2022-12-16T02:31:41.959Z,35.24
2022-12-16T02:34:12.440Z,35.26
2022-12-16T02:36:49.032Z,35.03
2022-12-16T02:39:33.976Z,35.07
2022-12-16T02:42:11.697Z,35.45
2022-12-16T02:44:41.352Z,35.11
2022-12-16T02:47:07.940Z,35.28
2022-12-16T02:49:34.591Z,35.44
2022-12-16T02:52:02.050Z,35.13
2022-12-16T02:54:29.069Z,35.46
2022-12-16T02:57:14.316Z,35.54
2022-12-16T03:00:07.040Z,35.34
2022-12-16T03:03:00.082Z,35.38
2022-12-16T03:05:29.770Z,35.34
2022-12-16T03:07:58.815Z,35.14
2022-12-16T03:10:28.097Z,35.45
2022-12-16T03:12:56.666Z,35.36
2022-12-16T03:15:25.925Z,35.44
2022-12-16T03:17:54.051Z,35.37
2022-12-16T03:20:31.184Z,35.61
2022-12-16T03:23:00.166Z,35.52
2022-12-16T03:25:28.347Z,35.59
2022-12-16T03:27:59.288Z,35.35
2022-12-16T03:30:29.906Z,35.56
2022-12-16T03:33:02.584Z,35.71
2022-12-16T03:35:33.750Z,35.65
2022-12-16T03:38:02.035Z,35.78
2022-12-16T03:40:29.129Z,35.85
2022-12-16T03:42:57.227Z,35.96
2022-12-16T03:45:26.422Z,35.84
2022-12-16T03:47:53.682Z,35.96
2022-12-16T03:50:22.213Z,35.92
2022-12-16T03:52:48.802Z,35.80
2022-12-16T03:55:15.541Z,35.63
2022-12-16T03:57:42.139Z,36.08
2022-12-16T04:00:09.629Z,35.78
2022-12-16T04:02:36.453Z,35.96
2022-12-16T04:05:03.311Z,36.11
2022-12-16T04:07:30.043Z,35.80
2022-12-16T04:09:56.641Z,36.15
2022-12-16T04:12:41.712Z,36.24
2022-12-16T04:15:29.136Z,35.94
2022-12-16T04:18:34.126Z,36.06
2022-12-16T04:21:20.035Z,35.99
2022-12-16T04:24:07.568Z,36.39
2022-12-16T04:26:57.277Z,36.00
2022-12-16T04:29:24.302Z,36.12
2022-12-16T04:31:51.726Z,36.36
2022-12-16T04:34:27.866Z,36.40
2022-12-16T04:37:14.371Z,36.21
2022-12-16T04:39:59.296Z,36.30
2022-12-16T04:42:44.408Z,36.46
2022-12-16T04:45:30.073Z,36.44
2022-12-16T04:48:15.236Z,36.92
2022-12-16T04:51:01.988Z,36.93
2022-12-16T04:53:47.250Z,36.92
2022-12-16T04:56:32.561Z,36.73
2022-12-16T04:59:17.851Z,36.71
2022-12-16T05:02:03.655Z,36.44
2022-12-16T05:04:48.967Z,36.88
2022-12-16T05:07:41.115Z,36.54
2022-12-16T05:10:26.379Z,36.87
2022-12-16T05:13:14.615Z,36.95
2022-12-16T05:16:00.305Z,36.84
2022-12-16T05:18:45.445Z,36.92
2022-12-16T05:21:31.261Z,36.66
2022-12-16T05:24:16.477Z,36.88
2022-12-16T05:27:01.776Z,37.03
2022-12-16T05:29:46.852Z,37.34
2022-12-16T05:32:31.984Z,37.54
2022-12-16T05:35:17.121Z,37.77
2022-12-16T05:38:03.788Z,37.70
2022-12-16T05:40:48.889Z,37.91
2022-12-16T05:43:34.309Z,38.31
2022-12-16T05:46:19.672Z,38.15
2022-12-16T05:49:04.917Z,38.08
2022-12-16T05:51:50.018Z,38.27
2022-12-16T05:54:35.212Z,37.96
2022-12-16T05:57:20.513Z,38.29
2022-12-16T06:00:05.555Z,38.44
2022-12-16T06:02:50.827Z,38.13
2022-12-16T06:05:37.114Z,38.26
2022-12-16T06:08:36.045Z,37.79
2022-12-16T06:11:21.041Z,37.88
2022-12-16T06:14:05.953Z,37.80
2022-12-16T06:16:52.978Z,38.06
2022-12-16T06:19:38.302Z,37.76
2022-12-16T06:22:23.403Z,38.01
2022-12-16T06:25:08.507Z,37.67
2022-12-16T06:27:53.642Z,37.85
2022-12-16T06:30:38.835Z,37.54
2022-12-16T06:33:24.012Z,37.68
2022-12-16T06:36:08.937Z,37.80
2022-12-16T06:38:54.093Z,37.54
2022-12-16T06:41:39.206Z,37.22
2022-12-16T06:44:24.381Z,37.25
2022-12-16T06:47:09.481Z,37.17
2022-12-16T06:49:54.634Z,37.03
2022-12-16T06:52:40.153Z,37.23
2022-12-16T06:55:45.037Z,37.21
2022-12-16T06:58:30.386Z,37.08
2022-12-16T07:01:15.668Z,36.83
2022-12-16T07:04:00.828Z,36.87
2022-12-16T07:06:46.494Z,36.95
2022-12-16T07:09:31.489Z,37.15
2022-12-16T07:12:38.245Z,36.92
2022-12-16T07:15:23.782Z,36.88
2022-12-16T07:18:17.707Z,36.88
2022-12-16T07:21:18.080Z,37.00
2022-12-16T07:24:03.372Z,36.94
2022-12-16T07:26:49.009Z,36.88
2022-12-16T07:29:34.203Z,36.71
2022-12-16T07:32:19.493Z,36.47
2022-12-16T07:35:04.688Z,36.48
2022-12-16T07:37:50.561Z,36.52
2022-12-16T07:40:36.436Z,36.79
2022-12-16T07:43:21.829Z,36.36
2022-12-16T07:46:07.365Z,36.28
2022-12-16T07:48:52.798Z,36.29
2022-12-16T07:51:38.360Z,36.08
2022-12-16T07:54:25.679Z,36.17
2022-12-16T07:57:10.790Z,35.88
2022-12-16T07:59:55.794Z,35.38
2022-12-16T08:02:41.285Z,35.08
2022-12-16T08:05:26.811Z,34.62
2022-12-16T08:08:14.494Z,34.43
2022-12-16T08:11:00.194Z,33.79
2022-12-16T08:13:45.239Z,33.52
2022-12-16T08:16:30.458Z,33.85
2022-12-16T08:19:15.471Z,33.42
2022-12-16T08:22:00.540Z,33.46
2022-12-16T08:24:51.264Z,33.35
2022-12-16T08:27:45.124Z,33.37
2022-12-16T08:30:30.735Z,33.13
2022-12-16T08:33:19.579Z,32.98
2022-12-16T08:36:05.734Z,32.99
2022-12-16T08:38:50.748Z,33.01
2022-12-16T08:41:36.352Z,32.79
2022-12-16T08:44:21.443Z,33.07
2022-12-16T08:47:06.658Z,32.51
2022-12-16T08:49:54.779Z,28.81
2022-12-16T08:52:43.181Z,29.99
2022-12-16T08:55:29.941Z,30.65
2022-12-16T08:58:15.518Z,30.79
2022-12-16T09:01:06.741Z,31.49
2022-12-16T09:03:52.880Z,32.04
2022-12-16T09:06:40.591Z,32.34
2022-12-16T09:09:26.671Z,32.11
2022-12-16T09:12:11.774Z,32.04
2022-12-16T09:14:56.922Z,32.46
2022-12-16T09:17:50.080Z,32.53
2022-12-16T09:20:36.461Z,32.38
2022-12-16T09:23:21.923Z,31.92
2022-12-16T09:26:07.101Z,32.46
2022-12-16T09:28:52.302Z,32.29
2022-12-16T09:31:38.754Z,32.12
2022-12-16T09:34:28.221Z,32.02
2022-12-16T09:37:13.441Z,32.37
2022-12-16T09:40:15.893Z,31.92
2022-12-16T09:43:10.024Z,31.93
2022-12-16T09:46:00.611Z,32.22
2022-12-16T09:49:17.896Z,32.04
2022-12-16T09:52:04.891Z,31.75
2022-12-16T09:54:52.837Z,31.79
2022-12-16T09:57:51.355Z,32.27
2022-12-16T10:00:41.495Z,32.35
2022-12-16T10:03:52.986Z,32.09
2022-12-16T10:07:01.325Z,31.97
2022-12-16T10:09:49.433Z,31.70
2022-12-16T10:12:53.368Z,32.01
2022-12-16T10:16:04.691Z,31.99
2022-12-16T10:19:01.881Z,32.19
2022-12-16T10:21:51.863Z,32.34
2022-12-16T10:24:40.030Z,32.46
2022-12-16T10:27:34.616Z,32.81
2022-12-16T10:30:20.314Z,32.24
2022-12-16T10:33:08.695Z,32.22
2022-12-16T10:36:04.409Z,32.25
2022-12-16T10:39:01.234Z,32.11
2022-12-16T10:41:53.543Z,32.22
2022-12-16T10:44:56.596Z,32.19
2022-12-16T10:47:52.040Z,32.31
2022-12-16T10:50:37.033Z,32.02
2022-12-16T10:53:24.603Z,32.38
2022-12-16T10:56:16.379Z,32.09
2022-12-16T10:59:05.431Z,31.86
2022-12-16T11:01:50.780Z,31.71
2022-12-16T11:04:56.397Z,31.84
2022-12-16T11:08:02.135Z,31.66
2022-12-16T11:10:47.502Z,31.59
2022-12-16T11:13:36.096Z,31.93
2022-12-16T11:16:28.778Z,31.89
2022-12-16T11:19:14.052Z,31.62
2022-12-16T11:21:59.227Z,31.90
2022-12-16T11:24:44.763Z,31.96
2022-12-16T11:30:41.808Z,31.97
2022-12-16T11:33:33.418Z,31.87
2022-12-16T11:36:39.155Z,31.55
2022-12-16T11:39:25.854Z,31.57
2022-12-16T11:42:13.041Z,31.29
2022-12-16T11:44:59.998Z,31.49
2022-12-16T11:47:49.564Z,31.62
2022-12-16T11:50:36.494Z,31.29
2022-12-16T11:53:24.063Z,31.30
2022-12-16T11:56:15.988Z,31.71
2022-12-16T11:59:01.814Z,31.57
2022-12-16T12:01:49.508Z,31.25
2022-12-16T12:04:34.656Z,31.25
2022-12-16T12:07:48.727Z,31.53
2022-12-16T12:11:02.284Z,31.37
2022-12-16T12:13:50.521Z,31.69
2022-12-16T12:16:50.391Z,31.74
2022-12-16T12:19:38.232Z,31.62
2022-12-16T12:22:50.205Z,31.74
2022-12-16T12:25:52.048Z,31.55
2022-12-16T12:28:52.325Z,31.60
2022-12-16T12:31:40.621Z,31.59
2022-12-16T12:34:36.401Z,31.51
2022-12-16T12:37:24.539Z,31.34
2022-12-16T12:40:32.796Z,31.64
2022-12-16T12:43:20.281Z,31.61
2022-12-16T12:46:24.328Z,31.48
2022-12-16T12:49:27.399Z,31.79
2022-12-16T12:52:24.457Z,31.74
2022-12-16T12:55:19.090Z,31.55
2022-12-16T12:58:10.779Z,31.76
2022-12-16T13:01:01.850Z,31.93
2022-12-16T13:03:53.249Z,31.62
2022-12-16T13:06:39.931Z,31.75
2022-12-16T13:09:45.250Z,31.67
2022-12-16T13:12:30.451Z,31.89
2022-12-16T13:15:26.058Z,32.17
2022-12-16T13:18:20.295Z,31.80
2022-12-16T13:21:23.955Z,32.23
2022-12-16T13:24:09.105Z,32.15
2022-12-16T13:27:10.992Z,31.90
2022-12-16T13:29:56.332Z,32.28
2022-12-16T13:32:44.442Z,32.09
2022-12-16T13:35:29.701Z,32.09
2022-12-16T13:38:16.284Z,31.98
2022-12-16T13:41:08.890Z,31.92
2022-12-16T13:44:13.324Z,32.33
2022-12-16T13:46:58.549Z,32.40
2022-12-16T13:49:55.942Z,32.39
2022-12-16T13:53:03.124Z,32.11
2022-12-16T13:55:53.788Z,32.59
2022-12-16T13:58:48.036Z,32.22
2022-12-16T14:01:35.999Z,32.25
2022-12-16T14:04:21.282Z,32.22
2022-12-16T14:07:07.800Z,32.37
2022-12-16T14:09:54.573Z,32.39
2022-12-16T14:12:53.206Z,32.37
2022-12-16T14:15:59.959Z,32.70
2022-12-16T14:18:48.260Z,32.88
2022-12-16T14:21:37.926Z,32.50
2022-12-16T14:24:30.769Z,32.51
2022-12-16T14:27:15.667Z,32.54
2022-12-16T14:30:02.233Z,32.55
2022-12-16T14:32:51.895Z,32.83
2022-12-16T14:35:44.199Z,32.75
2022-12-16T14:38:46.671Z,32.48
2022-12-16T14:41:32.032Z,32.76
2022-12-16T14:44:17.265Z,32.78
2022-12-16T14:47:07.542Z,32.82
2022-12-16T14:49:52.449Z,32.75
2022-12-16T14:52:42.534Z,32.92
2022-12-16T14:55:50.855Z,32.69
2022-12-16T14:58:37.527Z,32.98
2022-12-16T15:01:34.042Z,32.87
2022-12-16T15:04:21.647Z,33.27
2022-12-16T15:07:08.057Z,33.06
2022-12-16T15:09:58.271Z,33.32
2022-12-16T15:12:46.911Z,33.09
2022-12-16T15:15:34.618Z,33.40
2022-12-16T15:18:20.301Z,33.14
2022-12-16T15:21:26.148Z,33.12
2022-12-16T15:24:11.726Z,33.16
2022-12-16T15:26:57.394Z,33.54
2022-12-16T15:30:02.703Z,33.59
2022-12-16T15:32:48.810Z,33.30
2022-12-16T15:35:50.921Z,33.53
2022-12-16T15:38:49.729Z,33.36
2022-12-16T15:41:55.036Z,33.44
2022-12-16T15:44:42.194Z,33.83
2022-12-16T15:47:47.974Z,33.77
2022-12-16T15:50:33.933Z,33.48
2022-12-16T15:53:35.231Z,33.49
2022-12-16T15:56:20.710Z,33.84
2022-12-16T15:59:06.198Z,33.83
2022-12-16T16:02:04.311Z,33.79
2022-12-16T16:04:50.039Z,33.96
2022-12-16T16:07:45.605Z,33.63
2022-12-16T16:10:33.909Z,33.91
2022-12-16T16:13:19.137Z,33.84
2022-12-16T16:16:04.221Z,33.67
2022-12-16T16:18:49.280Z,34.20
2022-12-16T16:21:34.770Z,33.95
2022-12-16T16:24:19.839Z,33.91
2022-12-16T16:27:04.883Z,34.08
2022-12-16T16:29:49.880Z,34.24
2022-12-16T16:32:34.972Z,33.86
2022-12-16T16:35:20.493Z,33.92
2022-12-16T16:38:05.681Z,33.97
2022-12-16T16:40:50.749Z,34.36
2022-12-16T16:43:36.672Z,34.30
2022-12-16T16:46:24.789Z,34.16
2022-12-16T16:49:09.764Z,34.31
2022-12-16T16:51:54.994Z,34.41
2022-12-16T16:54:40.041Z,34.14
2022-12-16T16:57:27.576Z,34.52
2022-12-16T17:00:12.605Z,34.36
2022-12-16T17:02:57.806Z,34.22
2022-12-16T17:06:03.277Z,34.41
2022-12-16T17:08:48.593Z,34.42
2022-12-16T17:11:40.835Z,34.20
2022-12-16T17:14:30.498Z,34.47
2022-12-16T17:17:15.595Z,34.45
2022-12-16T17:20:00.965Z,34.56
2022-12-16T17:22:46.335Z,34.32
2022-12-16T17:25:32.064Z,34.56
2022-12-16T17:28:17.712Z,34.35
2022-12-16T17:31:02.740Z,34.30
2022-12-16T17:33:47.959Z,34.22
2022-12-16T17:36:34.534Z,34.46
2022-12-16T17:39:20.135Z,34.41
2022-12-16T17:42:05.515Z,34.64
2022-12-16T17:44:50.547Z,34.85
2022-12-16T17:47:35.555Z,34.58
2022-12-16T17:50:21.068Z,34.53
2022-12-16T17:53:06.084Z,34.72
2022-12-16T17:55:52.139Z,34.70
2022-12-16T17:58:37.174Z,34.65
2022-12-16T18:01:24.093Z,34.71
2022-12-16T18:04:09.534Z,34.68
2022-12-16T18:06:54.662Z,34.72
2022-12-16T18:09:39.728Z,34.87
2022-12-16T18:12:24.736Z,34.88
2022-12-16T18:15:09.887Z,34.63
2022-12-16T18:17:54.904Z,34.84
2022-12-16T18:20:39.916Z,34.84
2022-12-16T18:23:24.999Z,34.94
2022-12-16T18:26:16.685Z,35.00
2022-12-16T18:29:01.817Z,34.76
2022-12-16T18:31:46.890Z,34.77
2022-12-16T18:34:34.095Z,34.72
2022-12-16T18:37:19.216Z,35.00
2022-12-16T18:40:04.317Z,34.72
2022-12-16T18:42:49.495Z,35.10
2022-12-16T18:45:34.667Z,34.96
2022-12-16T18:48:19.682Z,35.19
2022-12-16T18:51:11.365Z,34.88
2022-12-16T18:53:56.378Z,34.83
2022-12-16T18:56:41.505Z,34.86
2022-12-16T18:59:26.741Z,34.98
2022-12-16T19:02:11.937Z,34.79
2022-12-16T19:04:57.563Z,35.11
2022-12-16T19:07:45.106Z,35.27
2022-12-16T19:10:30.111Z,35.07
2022-12-16T19:13:15.613Z,35.03
2022-12-16T19:16:20.540Z,35.14
2022-12-16T19:19:05.851Z,35.22
2022-12-16T19:21:56.162Z,35.14
2022-12-16T19:24:46.804Z,35.01
2022-12-16T19:27:41.175Z,34.96
2022-12-16T19:30:26.858Z,34.96
2022-12-16T19:33:11.853Z,35.41
2022-12-16T19:35:57.373Z,35.21
2022-12-16T19:38:42.486Z,34.97
2022-12-16T19:41:34.115Z,35.11
2022-12-16T19:44:19.140Z,35.45
2022-12-16T19:47:04.379Z,35.24
2022-12-16T19:49:49.414Z,35.27
2022-12-16T19:52:34.604Z,35.52
2022-12-16T19:55:19.692Z,35.34
2022-12-16T19:58:06.155Z,35.16
2022-12-16T20:00:51.104Z,35.50
2022-12-16T20:03:36.894Z,35.52
2022-12-16T20:06:23.552Z,35.20
2022-12-16T20:09:09.551Z,35.63
2022-12-16T20:11:55.205Z,35.55
2022-12-16T20:14:41.441Z,35.44
2022-12-16T20:17:26.622Z,35.51
2022-12-16T20:20:11.679Z,35.41
2022-12-16T20:22:56.702Z,35.54
2022-12-16T20:25:41.749Z,35.61
2022-12-16T20:28:26.653Z,35.49
2022-12-16T20:31:11.898Z,35.33
2022-12-16T20:34:02.684Z,35.43
2022-12-16T20:36:55.846Z,35.46
2022-12-16T20:39:42.489Z,35.56
2022-12-16T20:42:28.842Z,35.58
2022-12-16T20:45:13.778Z,35.50
2022-12-16T20:48:12.133Z,35.89
2022-12-16T20:50:57.246Z,35.61
2022-12-16T20:53:42.732Z,36.00
2022-12-16T20:56:28.030Z,36.08
2022-12-16T20:59:13.088Z,36.11
2022-12-16T21:02:22.092Z,36.15
2022-12-16T21:05:03.421Z,35.94
2022-12-16T21:07:48.651Z,36.16
2022-12-16T21:10:33.888Z,35.97
2022-12-16T21:13:26.131Z,35.93
2022-12-16T21:16:11.172Z,36.01
2022-12-16T21:18:56.076Z,35.93
2022-12-16T21:21:41.794Z,35.71
2022-12-16T21:24:37.467Z,35.95
2022-12-16T21:27:22.601Z,35.93
2022-12-16T21:30:07.787Z,35.52
2022-12-16T21:32:53.483Z,35.52
2022-12-16T21:35:38.987Z,35.90
2022-12-16T21:38:30.613Z,35.78
2022-12-16T21:41:16.247Z,35.37
2022-12-16T21:44:01.335Z,35.42
2022-12-16T21:46:46.328Z,35.35
2022-12-16T21:49:31.462Z,35.46
2022-12-16T21:52:16.551Z,35.40
2022-12-16T21:55:01.545Z,35.01
2022-12-16T21:57:51.017Z,35.25
2022-12-16T22:00:38.642Z,35.03
2022-12-16T22:03:23.807Z,35.36
2022-12-16T22:06:08.796Z,35.10
2022-12-16T22:08:54.613Z,35.21
2022-12-16T22:11:41.413Z,35.27
2022-12-16T22:14:26.350Z,34.94
2022-12-16T22:17:11.407Z,35.32
2022-12-16T22:19:56.544Z,35.11
2022-12-16T22:22:42.100Z,34.84
2022-12-16T22:25:27.777Z,35.12
2022-12-16T22:28:12.717Z,35.15
2022-12-16T22:30:57.872Z,35.30
2022-12-16T22:33:42.939Z,35.45
2022-12-16T22:36:29.650Z,35.45
2022-12-16T22:39:14.800Z,35.23
2022-12-16T22:41:59.704Z,35.64
2022-12-16T22:44:44.844Z,35.36
2022-12-16T22:47:29.796Z,35.58
2022-12-16T22:50:14.854Z,35.31
2022-12-16T22:52:59.903Z,35.75
2022-12-16T22:55:45.030Z,35.59
2022-12-16T22:58:30.594Z,35.32
2022-12-16T23:01:16.083Z,35.25
2022-12-16T23:04:01.674Z,35.60
2022-12-16T23:06:46.832Z,35.55
2022-12-16T23:09:31.888Z,35.50
2022-12-16T23:12:17.023Z,35.25
2022-12-16T23:15:02.016Z,35.13
2022-12-16T23:17:47.689Z,35.20
2022-12-16T23:20:32.781Z,35.25
2022-12-16T23:23:17.996Z,34.73
2022-12-16T23:26:13.129Z,34.98
2022-12-16T23:28:58.224Z,34.69
2022-12-16T23:31:43.299Z,34.95
2022-12-16T23:34:28.453Z,34.61
2022-12-16T23:37:13.369Z,34.65
2022-12-16T23:39:58.439Z,34.52
2022-12-16T23:42:43.555Z,34.63
2022-12-16T23:45:28.658Z,34.36
2022-12-16T23:48:20.423Z,34.44
2022-12-16T23:51:05.565Z,34.34
2022-12-16T23:53:50.509Z,34.45
2022-12-16T23:56:35.637Z,34.41
2022-12-16T23:59:20.639Z,34.49
